Time;durP1;ratioP1;P1;durP2;ratioP2;P2;SDS_P1;SDS_P2;PMS_P1;PMS_P2;Temp;Humidity;BMP_temperature;BMP_pressure;BME280_temperature;BME280_humidity;BME280_pressure;Samples;Min_cycle;Max_cycle;Signal;HPM_P1;HPM_P2
2021/06/16 00:02:20;;;;;;;2.35;1.40;;;;;;;16.73;74.74;97585.42;1666839;85;21573;-60
2021/06/16 00:04:49;;;;;;;1.98;1.10;;;;;;;16.72;73.45;97586.41;1667058;85;21117;-60
2021/06/16 00:07:16;;;;;;;2.00;1.30;;;;;;;16.70;73.24;97590.53;1666960;85;21131;-60
2021/06/16 00:09:43;;;;;;;1.85;1.35;;;;;;;16.69;72.29;97585.49;1666240;85;21130;-61
2021/06/16 00:12:11;;;;;;;1.57;1.12;;;;;;;16.67;72.69;97591.41;1667014;85;21113;-61
2021/06/16 00:14:39;;;;;;;2.08;1.40;;;;;;;16.64;74.58;97593.92;1667041;85;21025;-61
2021/06/16 00:17:06;;;;;;;2.42;1.30;;;;;;;16.58;75.28;97591.55;1666948;85;21124;-62
2021/06/16 00:19:34;;;;;;;2.37;1.37;;;;;;;16.56;75.31;97591.41;1666767;85;21199;-62
2021/06/16 00:22:01;;;;;;;1.80;1.25;;;;;;;16.53;75.66;97585.23;1667053;85;21061;-62
2021/06/16 00:24:28;;;;;;;4.50;1.20;;;;;;;16.53;74.76;97592.59;1666617;85;21144;-62
2021/06/16 00:26:55;;;;;;;1.42;1.05;;;;;;;16.55;75.58;97585.34;1666299;85;21041;-62
2021/06/16 00:29:22;;;;;;;2.00;1.32;;;;;;;16.57;74.50;97582.58;1666819;85;21030;-63
2021/06/16 00:31:49;;;;;;;2.75;1.35;;;;;;;16.57;76.53;97585.20;1667225;85;21183;-64
2021/06/16 00:34:16;;;;;;;2.70;1.30;;;;;;;16.59;76.20;97584.49;1668357;84;21096;-64
2021/06/16 00:36:43;;;;;;;2.52;1.20;;;;;;;16.57;75.56;97572.88;1671149;85;21098;-64
2021/06/16 00:39:11;;;;;;;1.77;1.35;;;;;;;16.58;76.23;97568.45;1671829;84;21017;-63
2021/06/16 00:41:38;;;;;;;2.17;1.30;;;;;;;16.60;75.52;97566.46;1671172;86;21601;-63
2021/06/16 00:44:06;;;;;;;1.70;1.22;;;;;;;16.63;74.12;97568.70;1671297;84;21076;-63
2021/06/16 00:46:34;;;;;;;2.05;0.90;;;;;;;16.66;74.35;97569.62;1671118;84;21092;-62
2021/06/16 00:49:01;;;;;;;2.00;1.30;;;;;;;16.68;73.81;97566.33;1671512;84;21113;-61
2021/06/16 00:51:28;;;;;;;1.52;1.07;;;;;;;16.72;73.55;97561.51;1670846;85;21052;-62
2021/06/16 00:53:55;;;;;;;1.42;1.15;;;;;;;16.74;74.43;97559.48;1671320;84;21145;-62
2021/06/16 00:56:22;;;;;;;1.10;1.00;;;;;;;16.74;74.15;97562.11;1671674;84;21570;-61
2021/06/16 00:58:50;;;;;;;3.62;1.37;;;;;;;16.74;73.57;97566.05;1671774;86;22282;-65
2021/06/16 01:01:23;;;;;;;1.72;1.22;;;;;;;16.73;74.04;97570.47;1671634;84;21061;-61
2021/06/16 01:04:04;;;;;;;2.02;1.15;;;;;;;16.72;73.54;97580.67;1671635;84;21667;-61
2021/06/16 01:06:45;;;;;;;1.90;1.07;;;;;;;16.61;76.08;97580.67;1671562;85;21501;-63
2021/06/16 01:09:18;;;;;;;2.10;1.32;;;;;;;16.53;76.49;97578.67;1642517;86;21175;-61
2021/06/16 01:12:10;;;;;;;1.82;1.40;;;;;;;16.45;76.57;97586.17;1671357;85;21113;-62
2021/06/16 01:14:48;;;;;;;1.57;1.00;;;;;;;16.41;77.18;97584.93;1671637;86;21182;-62
2021/06/16 01:17:23;;;;;;;1.67;1.20;;;;;;;16.34;77.24;97579.32;1671841;86;21052;-61
2021/06/16 01:20:02;;;;;;;1.37;1.02;;;;;;;16.32;76.26;97576.87;1671500;84;21121;-62
2021/06/16 01:22:49;;;;;;;2.35;1.40;;;;;;;16.33;76.64;97571.95;1671405;84;21609;-63
2021/06/16 01:25:40;;;;;;;3.02;1.10;;;;;;;16.33;77.11;97579.00;1671613;84;21104;-64
2021/06/16 01:28:09;;;;;;;2.52;1.30;;;;;;;16.24;77.91;97580.12;1672052;86;21030;-64
2021/06/16 01:30:38;;;;;;;1.80;1.35;;;;;;;16.21;77.79;97575.26;1671395;86;21621;-64
2021/06/16 01:33:07;;;;;;;2.22;1.60;;;;;;;16.19;77.44;97569.37;1671293;85;21107;-64
2021/06/16 01:35:37;;;;;;;1.35;0.90;;;;;;;16.11;78.48;97572.44;1669972;85;21235;-63
2021/06/16 01:38:07;;;;;;;2.67;1.37;;;;;;;16.11;78.36;97567.20;1669045;84;21069;-63
2021/06/16 01:40:36;;;;;;;1.12;1.02;;;;;;;16.09;77.15;97571.83;1669534;84;21096;-64
2021/06/16 01:43:04;;;;;;;2.35;1.10;;;;;;;16.08;78.40;97572.82;1669466;84;21100;-60
2021/06/16 01:45:34;;;;;;;1.62;1.40;;;;;;;16.06;78.31;97572.70;1669785;84;21065;-60
2021/06/16 01:48:06;;;;;;;1.22;0.90;;;;;;;16.04;78.21;97574.69;1669653;84;21060;-63
2021/06/16 01:50:35;;;;;;;2.22;1.52;;;;;;;16.01;78.62;97587.66;1669454;85;21041;-62
2021/06/16 01:53:02;;;;;;;1.85;1.17;;;;;;;15.92;79.10;97580.09;1669690;84;21064;-62
2021/06/16 01:55:30;;;;;;;1.20;1.07;;;;;;;15.89;78.99;97581.78;1669498;84;21045;-62
2021/06/16 01:57:58;;;;;;;1.67;1.12;;;;;;;15.88;78.22;97575.73;1669177;86;21061;-63
2021/06/16 02:00:27;;;;;;;1.40;1.00;;;;;;;15.88;79.04;97574.91;1669379;84;21112;-62
2021/06/16 02:02:55;;;;;;;1.82;1.15;;;;;;;15.86;79.00;97577.73;1669386;84;21068;-62
2021/06/16 02:05:24;;;;;;;1.57;1.00;;;;;;;15.85;79.08;97577.41;1669493;84;21526;-62
2021/06/16 02:07:59;;;;;;;1.37;1.22;;;;;;;15.84;78.71;97583.64;1668709;85;21533;-62
2021/06/16 02:10:40;;;;;;;1.77;1.20;;;;;;;15.83;78.71;97585.15;1669173;86;21044;-62
2021/06/16 02:13:10;;;;;;;1.05;0.82;;;;;;;15.82;77.83;97588.27;1669559;84;21045;-60
2021/06/16 02:16:00;;;;;;;2.40;1.10;;;;;;;15.85;78.20;97584.45;1669264;84;21015;-61
2021/06/16 02:18:46;;;;;;;2.42;1.10;;;;;;;15.87;78.20;97583.78;1669422;84;21608;-61
2021/06/16 02:21:14;;;;;;;;;;;;;;;15.85;78.63;97587.06;1672060;85;21079;-61
2021/06/16 02:23:43;;;;;;;2.25;1.27;;;;;;;15.84;77.68;97590.67;1669330;85;20105;-60
2021/06/16 02:26:15;;;;;;;2.00;1.07;;;;;;;15.84;76.95;97589.37;1669161;84;21081;-61
2021/06/16 02:28:44;;;;;;;3.70;1.72;;;;;;;15.82;76.05;97588.27;1669988;84;21100;-60
2021/06/16 02:31:12;;;;;;;1.77;1.12;;;;;;;15.82;75.99;97599.23;1669276;84;21053;-62
2021/06/16 02:33:40;;;;;;;2.15;1.25;;;;;;;15.78;76.37;97596.17;1669659;85;21151;-62
2021/06/16 02:36:10;;;;;;;2.55;1.07;;;;;;;15.75;76.03;97603.09;1667680;85;21620;-63
2021/06/16 02:38:41;;;;;;;2.70;1.37;;;;;;;15.73;76.48;97599.83;1640668;86;21129;-61
2021/06/16 02:41:12;;;;;;;2.08;1.10;;;;;;;15.70;75.79;97600.70;1666877;85;21093;-62
2021/06/16 02:43:39;;;;;;;2.62;1.65;;;;;;;15.68;75.93;97599.55;1665653;85;21132;-60
2021/06/16 02:46:11;;;;;;;3.42;1.40;;;;;;;15.66;75.87;97598.45;1666945;85;21136;-60
2021/06/16 02:48:47;;;;;;;2.05;1.37;;;;;;;15.64;75.31;97603.56;1663016;85;20989;-64
2021/06/16 02:51:15;;;;;;;3.27;1.55;;;;;;;15.62;75.06;97610.28;1666896;85;21120;-60
2021/06/16 02:53:44;;;;;;;2.08;1.40;;;;;;;15.61;75.09;97611.76;1666945;86;21186;-61
2021/06/16 02:56:12;;;;;;;2.08;1.50;;;;;;;15.60;75.04;97610.94;1640253;86;21617;-61
2021/06/16 02:58:43;;;;;;;1.67;1.25;;;;;;;15.59;75.03;97615.89;1666974;85;21022;-63
2021/06/16 03:01:23;;;;;;;2.55;1.35;;;;;;;15.59;75.10;97624.23;1751096;82;21211;-61
2021/06/16 03:03:52;;;;;;;2.35;1.40;;;;;;;15.56;75.29;97630.62;1751211;82;21085;-61
2021/06/16 03:06:23;;;;;;;2.50;1.50;;;;;;;15.56;75.23;97633.77;1750968;82;20978;-60
2021/06/16 03:08:53;;;;;;;1.85;1.50;;;;;;;15.54;74.84;97626.08;1751148;82;21039;-59
2021/06/16 03:11:22;;;;;;;1.70;1.37;;;;;;;15.53;76.68;97629.69;1751128;81;21084;-61
2021/06/16 03:13:50;;;;;;;2.22;1.45;;;;;;;15.52;75.30;97634.62;1751208;82;21000;-60
2021/06/16 03:16:20;;;;;;;1.90;1.32;;;;;;;15.52;74.97;97633.31;1750750;82;21079;-62
2021/06/16 03:18:49;;;;;;;2.25;1.50;;;;;;;15.51;75.30;97635.61;1747101;82;21513;-61
2021/06/16 03:21:17;;;;;;;1.27;1.10;;;;;;;15.50;76.60;97636.59;1710015;84;21093;-62
2021/06/16 03:23:48;;;;;;;2.83;1.37;;;;;;;15.51;76.51;97634.30;1712551;83;21002;-63
2021/06/16 03:26:18;;;;;;;2.80;1.45;;;;;;;15.50;76.85;97636.59;1712604;84;21120;-63
2021/06/16 03:28:47;;;;;;;2.02;1.30;;;;;;;15.51;77.00;97638.72;1713086;83;21038;-63
2021/06/16 03:31:15;;;;;;;2.25;1.57;;;;;;;15.50;76.57;97639.70;1712778;83;21057;-63
2021/06/16 03:33:44;;;;;;;2.27;1.20;;;;;;;15.51;76.50;97639.53;1712507;84;21507;-62
2021/06/16 03:36:12;;;;;;;2.75;1.85;;;;;;;15.51;76.93;97638.72;1712260;84;21062;-62
2021/06/16 03:38:42;;;;;;;2.87;1.17;;;;;;;15.54;75.90;97641.78;1712892;83;21548;-62
2021/06/16 03:41:11;;;;;;;1.42;0.95;;;;;;;15.57;75.38;97640.10;1712552;84;21116;-64
2021/06/16 03:43:39;;;;;;;28.45;13.90;;;;;;;15.61;76.62;97642.67;1712475;84;21112;-65
2021/06/16 03:46:07;;;;;;;65.87;31.93;;;;;;;15.66;76.05;97647.37;1712437;84;21082;-65
2021/06/16 03:48:37;;;;;;;25.32;13.75;;;;;;;15.71;76.47;97648.95;1712479;83;21102;-63
2021/06/16 03:51:05;;;;;;;23.77;11.85;;;;;;;15.75;77.77;97646.78;1712119;84;21073;-68
2021/06/16 03:53:33;;;;;;;40.67;18.10;;;;;;;15.77;76.60;97645.59;1712241;84;21130;-63
2021/06/16 03:56:01;;;;;;;9.15;5.60;;;;;;;15.83;76.13;97651.42;1712736;84;21073;-63
2021/06/16 03:58:28;;;;;;;2.67;1.92;;;;;;;15.87;76.27;97644.83;1712519;84;21026;-64
2021/06/16 04:00:56;;;;;;;2.35;1.75;;;;;;;15.93;75.51;97653.73;1717889;83;21073;-64
2021/06/16 04:03:25;;;;;;;1.47;1.35;;;;;;;15.91;77.39;97655.74;1720497;83;21136;-63
2021/06/16 04:05:52;;;;;;;2.37;1.50;;;;;;;15.95;76.50;97655.69;1720696;83;21078;-63
2021/06/16 04:08:22;;;;;;;1.95;1.37;;;;;;;16.02;75.28;97660.50;1720168;83;21177;-62
2021/06/16 04:10:51;;;;;;;2.10;1.27;;;;;;;16.05;77.03;97660.94;1720602;83;21093;-63
2021/06/16 04:13:18;;;;;;;3.27;1.72;;;;;;;16.08;76.01;97664.50;1720699;83;21070;-63
2021/06/16 04:15:47;;;;;;;1.45;1.17;;;;;;;16.13;76.64;97662.14;1720565;83;21522;-63
2021/06/16 04:18:14;;;;;;;2.90;1.35;;;;;;;16.19;75.48;97665.81;1714872;83;21075;-66
2021/06/16 04:20:41;;;;;;;2.90;1.45;;;;;;;16.23;76.17;97666.25;1746768;81;20995;-63
2021/06/16 04:23:08;;;;;;;2.27;1.62;;;;;;;16.27;75.77;97665.70;1744764;81;21037;-62
2021/06/16 04:25:35;;;;;;;1.85;1.50;;;;;;;16.32;75.62;97651.56;1743980;81;21499;-63
2021/06/16 04:28:03;;;;;;;1.75;1.25;;;;;;;16.38;75.60;97656.56;1746596;81;21126;-63
2021/06/16 04:30:30;;;;;;;2.02;1.40;;;;;;;16.45;75.09;97659.56;1748143;81;21032;-65
2021/06/16 04:32:57;;;;;;;2.00;1.22;;;;;;;16.57;74.95;97663.84;1743805;81;21548;-65
2021/06/16 04:35:24;;;;;;;2.80;1.45;;;;;;;16.65;74.71;97668.14;1748093;81;21032;-65
2021/06/16 04:37:51;;;;;;;4.17;1.70;;;;;;;16.74;74.20;97666.50;1678384;85;21585;-65
2021/06/16 04:40:18;;;;;;;2.62;1.40;;;;;;;16.90;73.83;97681.16;1745670;81;21043;-66
2021/06/16 04:42:45;;;;;;;1.50;1.00;;;;;;;17.02;73.47;97677.02;1746178;81;21047;-66
2021/06/16 04:45:13;;;;;;;1.42;1.32;;;;;;;17.14;73.01;97671.57;1748314;81;21465;-65
2021/06/16 04:47:40;;;;;;;2.55;1.77;;;;;;;17.26;72.42;97682.35;1743776;81;21091;-65
2021/06/16 04:50:10;;;;;;;2.10;1.10;;;;;;;17.41;71.81;97676.00;1675794;85;21041;-65
2021/06/16 04:52:37;;;;;;;2.65;1.50;;;;;;;17.60;71.38;97677.14;1675183;83;21157;-65
2021/06/16 04:55:07;;;;;;;2.22;1.47;;;;;;;17.74;70.84;97674.88;1747103;81;21097;-66
2021/06/16 04:57:34;;;;;;;2.08;1.20;;;;;;;17.89;70.33;97672.14;1761960;81;21020;-66
2021/06/16 05:00:01;;;;;;;6.95;1.60;;;;;;;18.03;70.05;97673.81;1761022;81;21002;-65
2021/06/16 05:02:28;;;;;;;4.83;1.37;;;;;;;18.17;69.48;97678.09;1754192;82;21081;-65
2021/06/16 05:04:54;;;;;;;2.92;1.60;;;;;;;18.29;69.34;97678.33;1754068;81;21077;-65
2021/06/16 05:07:21;;;;;;;2.30;1.60;;;;;;;18.47;69.26;97671.52;1754121;82;21485;-65
2021/06/16 05:09:48;;;;;;;3.40;1.70;;;;;;;18.52;68.36;97675.41;1754075;82;20969;-64
2021/06/16 05:12:15;;;;;;;3.50;1.85;;;;;;;18.58;68.36;97664.08;1753734;82;21793;-66
2021/06/16 05:14:42;;;;;;;2.70;1.47;;;;;;;18.75;68.18;97664.82;1754178;82;20992;-66
2021/06/16 05:17:09;;;;;;;2.62;1.60;;;;;;;18.92;67.64;97663.89;1753654;81;21075;-65
2021/06/16 05:19:36;;;;;;;4.03;1.70;;;;;;;19.05;66.92;97660.46;1754085;82;21005;-67
2021/06/16 05:22:17;;;;;;;5.22;1.90;;;;;;;19.13;66.86;97658.44;1754173;82;21064;-67
2021/06/16 05:24:43;;;;;;;3.30;1.70;;;;;;;19.19;66.04;97655.48;1753601;81;21011;-66
2021/06/16 05:27:13;;;;;;;4.37;1.90;;;;;;;19.25;66.21;97659.94;1751193;82;21026;-65
2021/06/16 05:29:40;;;;;;;3.75;1.72;;;;;;;19.25;65.72;97658.12;1752615;82;21488;-67
2021/06/16 05:32:07;;;;;;;3.02;1.62;;;;;;;19.31;65.90;97665.19;1754266;82;21051;-66
2021/06/16 05:34:35;;;;;;;3.02;1.30;;;;;;;19.36;65.74;97657.50;1754200;82;21441;-66
2021/06/16 05:37:02;;;;;;;2.17;1.70;;;;;;;19.49;65.60;97659.84;1754039;82;21099;-66
2021/06/16 05:39:29;;;;;;;2.42;1.70;;;;;;;19.51;64.78;97667.82;1753916;81;21001;-67
2021/06/16 05:41:56;;;;;;;2.30;1.52;;;;;;;19.50;65.21;97667.52;1754126;82;21183;-66
2021/06/16 05:44:24;;;;;;;7.78;1.80;;;;;;;19.52;64.90;97668.13;1754139;82;21075;-66
2021/06/16 05:46:52;;;;;;;1.50;1.30;;;;;;;19.58;65.04;97661.21;1754171;82;21009;-65
2021/06/16 05:49:20;;;;;;;2.67;1.98;;;;;;;19.61;64.84;97660.28;1728822;82;21532;-67
2021/06/16 05:51:47;;;;;;;2.77;1.90;;;;;;;19.70;65.20;97660.87;1728756;82;21064;-66
2021/06/16 05:54:15;;;;;;;5.00;1.87;;;;;;;19.81;64.89;97662.86;1752357;82;21091;-66
2021/06/16 05:56:42;;;;;;;1.57;1.35;;;;;;;19.90;64.32;97665.07;1725484;82;21033;-67
2021/06/16 05:59:09;;;;;;;2.65;1.65;;;;;;;20.02;64.42;97661.27;1724092;82;21039;-67
2021/06/16 06:01:36;;;;;;;3.25;2.00;;;;;;;20.15;64.03;97659.91;1724340;82;21138;-67
2021/06/16 06:04:07;;;;;;;1.70;1.15;;;;;;;20.32;63.65;97661.55;1724938;81;21580;-67
2021/06/16 06:06:36;;;;;;;3.55;1.45;;;;;;;20.48;62.98;97665.02;1724090;83;21548;-67
2021/06/16 06:09:06;;;;;;;2.87;1.92;;;;;;;20.64;62.46;97661.05;1687065;84;21514;-67
2021/06/16 06:11:34;;;;;;;2.12;1.62;;;;;;;20.79;61.88;97665.00;1678331;84;21080;-67
2021/06/16 06:14:03;;;;;;;2.45;1.65;;;;;;;20.94;61.85;97663.87;1657759;86;21082;-67
2021/06/16 06:16:32;;;;;;;2.17;1.67;;;;;;;21.03;60.89;97663.40;1657839;86;21061;-67
2021/06/16 06:18:59;;;;;;;5.10;1.87;;;;;;;21.18;60.42;97659.13;1657476;86;21119;-67
2021/06/16 06:21:30;;;;;;;3.30;1.77;;;;;;;21.27;60.00;97657.33;1657862;85;21117;-67
2021/06/16 06:23:55;;;;;;;2.42;1.92;;;;;;;21.39;60.25;97653.97;1657913;85;21031;-67
2021/06/16 06:26:22;;;;;;;2.52;1.82;;;;;;;21.52;58.29;97653.81;1657599;85;21061;-65
2021/06/16 06:28:49;;;;;;;2.37;1.60;;;;;;;21.65;58.63;97654.49;1658052;86;21054;-67
2021/06/16 06:31:16;;;;;;;3.08;2.00;;;;;;;21.79;58.38;97657.78;1658004;85;21080;-67
2021/06/16 06:33:43;;;;;;;2.92;2.25;;;;;;;21.91;56.82;97659.17;1658089;86;21486;-67
2021/06/16 06:36:10;;;;;;;3.25;2.02;;;;;;;22.01;55.95;97655.02;1657997;86;21077;-66
2021/06/16 06:38:37;;;;;;;4.72;2.70;;;;;;;22.09;55.67;97655.23;1658015;86;21597;-66
2021/06/16 06:41:04;;;;;;;3.12;2.22;;;;;;;22.17;55.83;97650.45;1657803;85;21084;-66
2021/06/16 06:43:32;;;;;;;6.45;2.25;;;;;;;22.24;54.76;97649.84;1657842;86;21110;-66
2021/06/16 06:45:59;;;;;;;3.05;2.15;;;;;;;22.32;54.00;97655.33;1658123;85;21152;-66
2021/06/16 06:48:26;;;;;;;3.33;2.42;;;;;;;22.45;53.42;97656.45;1658084;86;21601;-67
2021/06/16 06:50:53;;;;;;;9.13;2.50;;;;;;;22.57;54.07;97655.98;1722492;83;21044;-67
2021/06/16 06:53:21;;;;;;;6.05;2.37;;;;;;;22.75;54.43;97655.14;1722373;83;21092;-66
2021/06/16 06:55:49;;;;;;;2.15;1.80;;;;;;;22.89;52.99;97649.92;1722109;83;21051;-66
2021/06/16 06:58:16;;;;;;;3.22;2.35;;;;;;;22.97;50.25;97645.61;1722507;83;20964;-66
2021/06/16 07:00:43;;;;;;;4.53;2.67;;;;;;;22.83;49.06;97640.77;1722228;83;21024;-66
2021/06/16 07:03:09;;;;;;;3.58;2.52;;;;;;;22.97;49.21;97636.34;1726185;83;21016;-66
2021/06/16 07:05:37;;;;;;;3.55;3.02;;;;;;;23.04;50.12;97637.55;1730188;83;21020;-66
2021/06/16 07:08:04;;;;;;;3.20;2.02;;;;;;;;;;1730123;83;21059;-66
2021/06/16 07:10:31;;;;;;;4.72;2.67;;;;;;;22.94;49.12;97638.14;1730321;83;21469;-66
2021/06/16 07:12:58;;;;;;;2.40;1.90;;;;;;;23.03;48.99;97642.58;1730506;83;21540;-67
2021/06/16 07:15:24;;;;;;;6.03;2.80;;;;;;;23.21;49.68;97635.84;1730103;83;21091;-66
2021/06/16 07:17:51;;;;;;;5.50;2.22;;;;;;;23.42;49.67;97642.41;1729857;83;21113;-67
2021/06/16 07:20:18;;;;;;;2.25;1.82;;;;;;;23.61;50.26;97647.38;1730351;83;21062;-67
2021/06/16 07:22:46;;;;;;;4.25;2.33;;;;;;;23.78;50.06;97643.97;1730465;83;21527;-67
2021/06/16 07:25:15;;;;;;;2.67;2.08;;;;;;;23.92;49.73;97644.02;1730342;83;21011;-67
2021/06/16 07:27:43;;;;;;;4.05;2.10;;;;;;;23.97;48.19;97640.92;1730275;83;20984;-66
2021/06/16 07:30:11;;;;;;;1.85;1.45;;;;;;;24.06;47.86;97639.52;1730482;83;21003;-66
2021/06/16 07:32:39;;;;;;;3.47;2.08;;;;;;;24.19;49.15;97642.45;1741346;81;21047;-67
2021/06/16 07:35:08;;;;;;;2.33;2.12;;;;;;;24.28;48.31;97639.69;1741203;81;21110;-72
2021/06/16 07:37:37;;;;;;;3.20;2.12;;;;;;;24.24;44.88;97641.20;1744729;81;21520;-67
2021/06/16 07:40:08;;;;;;;2.83;1.92;;;;;;;24.35;45.81;97644.35;1749566;81;21051;-66
2021/06/16 07:42:37;;;;;;;2.05;1.85;;;;;;;24.46;46.16;97646.66;1732018;82;21156;-67
2021/06/16 07:45:06;;;;;;;2.70;2.30;;;;;;;24.23;44.36;97641.45;1740965;81;21054;-66
2021/06/16 07:47:33;;;;;;;2.35;1.90;;;;;;;24.23;45.07;97649.42;1761843;81;21095;-67
2021/06/16 07:50:01;;;;;;;3.10;2.00;;;;;;;24.45;46.78;97648.50;1761835;81;21059;-67
2021/06/16 07:52:28;;;;;;;3.30;2.40;;;;;;;24.53;44.00;97645.98;1762047;81;21004;-67
2021/06/16 07:54:55;;;;;;;3.25;2.12;;;;;;;24.56;44.27;97652.13;1759897;81;21091;-68
2021/06/16 07:57:22;;;;;;;2.50;2.00;;;;;;;24.74;46.14;97651.13;1731984;82;21015;-66
2021/06/16 07:59:49;;;;;;;2.60;2.22;;;;;;;24.90;45.91;97653.02;1731924;82;21728;-67
2021/06/16 08:02:18;;;;;;;4.00;2.12;;;;;;;24.93;44.30;97649.88;1732025;82;21118;-67
2021/06/16 08:04:45;;;;;;;2.47;2.05;;;;;;;24.86;43.35;97643.38;1706016;83;21093;-67
2021/06/16 08:07:12;;;;;;;6.55;3.05;;;;;;;24.94;43.83;97652.83;1706350;83;21045;-66
2021/06/16 08:09:45;;;;;;;2.33;2.10;;;;;;;24.91;44.74;97654.09;1706044;83;21103;-67
2021/06/16 08:12:11;;;;;;;2.35;1.60;;;;;;;25.10;43.67;97658.63;1705343;83;21009;-67
2021/06/16 08:14:40;;;;;;;3.72;2.55;;;;;;;25.20;44.00;97660.14;1706313;83;21093;-67
2021/06/16 08:17:08;;;;;;;3.17;2.80;;;;;;;24.99;43.17;97651.04;1706236;83;21050;-67
2021/06/16 08:19:36;;;;;;;2.67;2.30;;;;;;;24.73;43.55;97650.32;1706053;83;21015;-67
2021/06/16 08:22:08;;;;;;;5.33;2.52;;;;;;;25.01;43.24;97660.91;1706347;83;20999;-67
2021/06/16 08:24:40;;;;;;;3.22;2.20;;;;;;;25.28;44.36;97661.05;1706347;83;21593;-67
2021/06/16 08:27:09;;;;;;;3.10;2.45;;;;;;;25.35;43.11;97664.87;1706371;83;21003;-67
2021/06/16 08:29:37;;;;;;;2.70;2.33;;;;;;;25.44;43.37;97658.09;1706368;83;21601;-67
2021/06/16 08:32:06;;;;;;;2.37;1.70;;;;;;;25.69;43.66;97662.44;1706365;83;21130;-67
2021/06/16 08:34:38;;;;;;;4.70;1.92;;;;;;;25.71;42.08;97660.87;1706370;83;21594;-67
2021/06/16 08:37:06;;;;;;;2.65;2.05;;;;;;;25.91;42.19;97666.46;1706226;83;21153;-67
2021/06/16 08:39:35;;;;;;;2.55;1.87;;;;;;;26.07;41.71;97666.13;1693663;83;21230;-67
2021/06/16 08:42:02;;;;;;;2.75;2.10;;;;;;;26.21;43.20;97670.84;1705881;83;21086;-67
2021/06/16 08:44:31;;;;;;;3.35;2.50;;;;;;;25.90;41.01;97668.31;1705990;83;21079;-67
2021/06/16 08:46:58;;;;;;;2.62;2.27;;;;;;;26.02;40.82;97672.70;1706339;83;21127;-67
2021/06/16 08:49:26;;;;;;;2.65;2.25;;;;;;;26.07;41.14;97676.21;1706235;83;21049;-67
2021/06/16 08:51:53;;;;;;;2.95;2.27;;;;;;;26.33;40.64;97678.16;1706334;83;21024;-66
2021/06/16 08:54:20;;;;;;;2.35;1.87;;;;;;;26.47;40.82;97670.56;1706304;83;21097;-67
2021/06/16 08:56:52;;;;;;;3.37;2.47;;;;;;;26.61;40.44;97669.13;1699789;83;21065;-67
2021/06/16 08:59:19;;;;;;;2.47;1.80;;;;;;;26.78;40.98;97671.14;1706177;83;21438;-67
2021/06/16 09:01:46;;;;;;;1.52;1.42;;;;;;;26.98;41.43;97668.40;1706255;83;21022;-66
2021/06/16 09:04:45;;;;;;;2.22;1.67;;;;;;;27.15;41.59;97667.74;1700721;83;21042;-67
2021/06/16 09:07:19;;;;;;;4.25;1.87;;;;;;;27.32;41.08;97673.19;1697826;83;21618;-67
2021/06/16 09:09:47;;;;;;;2.22;1.87;;;;;;;27.52;39.67;97679.21;1698577;83;21144;-67
2021/06/16 09:12:19;;;;;;;2.83;1.77;;;;;;;27.67;38.33;97669.16;1698618;83;21560;-67
2021/06/16 09:14:53;;;;;;;3.85;2.25;;;;;;;27.50;38.12;97674.68;1698853;83;21612;-67
2021/06/16 09:17:22;;;;;;;2.75;2.15;;;;;;;27.52;38.68;97672.55;1699267;83;21160;-68
2021/06/16 09:19:58;;;;;;;3.52;2.17;;;;;;;27.35;38.89;97670.55;1699022;83;21033;-67
2021/06/16 09:22:35;;;;;;;4.03;2.35;;;;;;;27.47;38.49;97669.84;1698690;83;21560;-67
2021/06/16 09:25:08;;;;;;;3.20;1.72;;;;;;;27.51;38.99;97665.59;1698318;83;21136;-67
2021/06/16 09:27:51;;;;;;;2.77;1.77;;;;;;;27.68;39.01;97666.23;1721132;83;21139;-68
2021/06/16 09:30:26;;;;;;;1.72;1.50;;;;;;;27.76;38.67;97667.08;1727722;83;21025;-67
2021/06/16 09:32:57;;;;;;;2.20;1.70;;;;;;;27.77;39.90;97665.22;1727809;83;21037;-68
2021/06/16 09:35:34;;;;;;;2.40;1.60;;;;;;;27.74;38.27;97670.52;1727595;83;21045;-67
2021/06/16 09:38:04;;;;;;;2.30;1.87;;;;;;;27.76;38.44;97672.42;1727323;83;21080;-67
2021/06/16 09:40:45;;;;;;;2.40;1.95;;;;;;;27.64;37.93;97670.48;1727559;83;21073;-67
2021/06/16 09:43:16;;;;;;;2.55;2.20;;;;;;;27.33;38.06;97671.33;1717997;83;21081;-67
2021/06/16 09:45:45;;;;;;;2.02;1.62;;;;;;;27.29;38.99;97673.70;1717668;81;21553;-68
2021/06/16 09:48:38;;;;;;;2.37;2.10;;;;;;;27.34;38.66;97676.94;1719355;81;21032;-67
2021/06/16 09:51:14;;;;;;;3.02;2.40;;;;;;;26.93;38.75;97678.48;1720766;81;21124;-67
2021/06/16 09:54:21;;;;;;;1.98;1.50;;;;;;;26.72;39.26;97673.48;1742139;81;21032;-67
2021/06/16 09:56:59;;;;;;;3.70;1.82;;;;;;;27.43;38.82;97681.27;1724195;81;21026;-67
2021/06/16 09:59:44;;;;;;;2.55;1.90;;;;;;;27.98;38.57;97678.91;1726527;81;21075;-67
2021/06/16 10:02:20;;;;;;;2.72;2.17;;;;;;;28.42;35.75;97680.70;1726481;82;21093;-67
2021/06/16 10:04:57;;;;;;;2.30;1.82;;;;;;;29.07;36.47;97688.02;1726938;83;21493;-67
2021/06/16 10:07:26;;;;;;;1.52;1.20;;;;;;;29.53;36.17;97686.12;1727031;81;21590;-67
2021/06/16 10:10:07;;;;;;;3.12;1.45;;;;;;;30.08;33.36;97677.14;1727297;83;21076;-68
2021/06/16 10:12:43;;;;;;;1.98;1.65;;;;;;;30.40;32.78;97690.12;1727715;82;21544;-67
2021/06/16 10:15:18;;;;;;;2.25;1.72;;;;;;;28.91;33.87;97680.28;1727692;83;21016;-67
2021/06/16 10:17:46;;;;;;;1.65;1.27;;;;;;;30.48;34.87;97683.41;1727691;82;21505;-68
2021/06/16 10:20:15;;;;;;;1.87;1.57;;;;;;;31.21;34.44;97678.06;1727822;82;21103;-68
2021/06/16 10:22:43;;;;;;;1.80;1.20;;;;;;;31.67;31.33;97678.47;1727556;83;21619;-68
2021/06/16 10:25:12;;;;;;;2.02;1.40;;;;;;;32.08;33.63;97674.78;1727805;83;21028;-68
2021/06/16 10:27:46;;;;;;;1.40;1.17;;;;;;;32.01;29.35;97673.77;1727647;82;21017;-66
2021/06/16 10:30:16;;;;;;;2.35;1.50;;;;;;;32.42;32.98;97680.23;1727475;82;21041;-67
2021/06/16 10:32:48;;;;;;;1.20;1.10;;;;;;;32.91;32.01;97675.78;1705394;83;21060;-68
2021/06/16 10:35:40;;;;;;;2.52;1.70;;;;;;;33.30;30.78;97675.97;1727610;82;21096;-68
2021/06/16 10:38:18;;;;;;;1.25;1.05;;;;;;;33.31;25.93;97674.31;1727624;82;21065;-68
2021/06/16 10:40:55;;;;;;;1.80;1.37;;;;;;;34.01;26.08;97670.62;1727475;82;21097;-68
2021/06/16 10:43:28;;;;;;;3.92;1.80;;;;;;;33.70;26.68;97673.09;1716412;82;21035;-61
2021/06/16 10:45:58;;;;;;;1.60;1.50;;;;;;;33.99;28.04;97678.98;1698772;84;21025;-62
2021/06/16 10:48:56;;;;;;;1.75;1.37;;;;;;;34.33;26.85;97673.98;1698703;84;21036;-61
2021/06/16 10:51:36;;;;;;;2.62;1.52;;;;;;;34.01;25.56;97678.70;1698606;84;21060;-65
2021/06/16 10:54:18;;;;;;;1.72;1.55;;;;;;;34.29;25.22;97672.19;1698556;84;21033;-64
2021/06/16 10:56:58;;;;;;;3.25;2.08;;;;;;;34.81;24.95;97674.02;1699492;82;21525;-65
2021/06/16 10:59:50;;;;;;;2.15;1.80;;;;;;;35.29;26.84;97666.12;1698635;84;21037;-63
2021/06/16 11:02:32;;;;;;;1.85;1.50;;;;;;;34.77;25.13;97669.78;1698857;84;21071;-65
2021/06/16 11:05:26;;;;;;;2.00;1.80;;;;;;;34.86;24.43;97661.77;1698421;84;21069;-63
2021/06/16 11:07:54;;;;;;;1.80;1.50;;;;;;;34.79;25.24;97659.47;1698588;83;21071;-63
2021/06/16 11:10:21;;;;;;;1.82;1.70;;;;;;;35.72;25.33;97665.00;1667209;85;21664;-61
2021/06/16 11:12:54;;;;;;;1.70;1.60;;;;;;;35.03;23.16;97659.97;1667432;86;21573;-62
2021/06/16 11:15:35;;;;;;;2.75;1.75;;;;;;;33.84;25.18;97657.20;1667317;86;21569;-62
2021/06/16 11:18:03;;;;;;;1.50;1.30;;;;;;;33.84;25.05;97659.90;1667433;86;21724;-63
2021/06/16 11:20:40;;;;;;;2.15;1.32;;;;;;;33.25;26.35;97658.02;1667461;86;21117;-64
2021/06/16 11:23:11;;;;;;;1.98;1.47;;;;;;;32.04;27.94;97657.07;1667529;86;21270;-62
2021/06/16 11:25:41;;;;;;;1.95;1.27;;;;;;;32.39;27.21;97655.28;1664461;86;21688;-63
2021/06/16 11:28:19;;;;;;;2.27;1.60;;;;;;;32.92;26.89;97660.41;1667314;86;21097;-62
2021/06/16 11:31:05;;;;;;;1.27;1.17;;;;;;;32.78;26.62;97658.23;1701250;84;21052;-63
2021/06/16 11:33:40;;;;;;;2.05;1.35;;;;;;;33.24;27.03;97646.99;1701039;84;21114;-62
2021/06/16 11:36:17;;;;;;;1.65;1.42;;;;;;;33.39;25.88;97649.41;1673784;84;21134;-61
2021/06/16 11:39:06;;;;;;;3.80;1.70;;;;;;;33.86;25.08;97648.26;1700910;83;21049;-63
2021/06/16 11:41:33;;;;;;;1.20;1.10;;;;;;;33.88;25.60;97649.32;1701070;84;21033;-63
2021/06/16 11:44:11;;;;;;;1.40;1.07;;;;;;;34.19;26.55;97648.96;1667282;86;21025;-63
2021/06/16 11:46:43;;;;;;;1.57;1.45;;;;;;;34.19;26.43;97646.27;1700910;84;21719;-63
2021/06/16 11:49:22;;;;;;;1.42;1.32;;;;;;;33.92;25.18;97639.54;1700786;84;21069;-63
2021/06/16 11:52:03;;;;;;;1.90;1.20;;;;;;;33.53;25.06;97643.25;1700998;84;21169;-63